Flight Track Log - Related Links

Times and Time Zones

All times are in EDT time to prevent confusion due to time zone crossing. See the LOF3424 flight status page for this flight to view local times or setup timezone preferences in your user account.

Time Position Orientation Groundspeed Altitude Reporting Facility
EDT Latitude Longitude Course Direction KTS MPH feet Rate Location/Type
Sun 07:32:54 PM 35.1333 -89.9833 348° North 238 274 3,300  Level KMEM
Sun 07:33:53 PM 35.2000 -90.0000 348° North 253 291 5,900 2,400 Climbing KMEM
Sun 07:34:54 PM 35.2667 -90.0167 348° North 262 302 8,100 2,041 Climbing KMEM
Sun 07:36:20 PM 35.3825 -90.0233 357° North 288 331 10,900 1,603 Climbing Memphis Center
Sun 07:37:20 PM 35.4533 -90.0283 357° North 288 331 12,000 1,350 Climbing Memphis Center
Sun 07:38:20 PM 35.5431 -90.0331 358° North 302 348 13,600 1,600 Climbing Memphis Center
Sun 07:39:20 PM 35.6286 -90.0378 357° North 307 353 15,200 1,650 Climbing Memphis Center
Sun 07:40:20 PM 35.7203 -90.0475 355° North 306 352 16,900 1,550 Climbing Memphis Center
Sun 07:41:20 PM 35.8081 -90.0653 351° North 306 352 18,300 1,100 Climbing Memphis Center
Sun 07:42:20 PM 35.8831 -90.0856 348° North 306 352 19,100 1,000 Climbing Memphis Center
Sun 07:43:20 PM 35.9686 -90.1133 345° North 306 352 20,300 1,150 Climbing Memphis Center
Sun 07:44:20 PM 36.0561 -90.1414 345° North 318 366 21,400 1,200 Climbing Memphis Center
Sun 07:45:20 PM 36.1458 -90.1667 347° North 318 366 22,700 1,300 Climbing Memphis Center
Sun 07:46:20 PM 36.2356 -90.1950 346° North 323 372 24,000 1,300 Climbing Memphis Center
Sun 07:47:20 PM 36.3253 -90.2256 345° North 323 372 25,300 1,250 Climbing Memphis Center
Sun 07:48:20 PM 36.4128 -90.2511 347° North 323 372 26,500 1,150 Climbing Memphis Center
Sun 07:49:20 PM 36.5025 -90.2794 346° North 318 366 27,600 1,100 Climbing Memphis Center
Sun 07:50:20 PM 36.5922 -90.3053 347° North 318 366 28,700 1,052 Climbing Memphis Center
Sun 07:52:34 PM 36.7900 -90.3625 347° North 333 383 31,000 1,015 Climbing Kansas City Center
Sun 07:53:35 PM 36.8814 -90.3903 346° North 334 384 32,000 488 Climbing Kansas City Center
Sun 07:54:37 PM 36.9956 -90.4264 346° North 349 402 32,000  Level Kansas City Center
Sun 07:55:39 PM 37.0994 -90.4592 346° North 372 428 32,000  Level Kansas City Center
Sun 07:56:40 PM 37.2044 -90.4917 346° North 384 442 32,000  Level Kansas City Center
Sun 07:57:42 PM 37.3111 -90.5242 346° North 391 450 32,000  Level Kansas City Center
Sun 07:58:44 PM 37.4181 -90.5589 346° North 390 449 32,000  Level Kansas City Center
Sun 07:59:46 PM 37.5231 -90.5917 346° North 389 448 32,000  Level Kansas City Center
Sun 08:00:47 PM 37.6286 -90.6264 345° North 390 449 32,000  Level Kansas City Center
Sun 08:01:49 PM 37.7336 -90.6603 346° North 390 449 32,000  Level Kansas City Center
Sun 08:02:50 PM 37.8372 -90.6939 346° North 385 443 32,000  Level Kansas City Center
Sun 08:03:52 PM 37.9389 -90.7261 346° North 379 436 32,000  Level Kansas City Center
Sun 08:04:54 PM 38.0628 -90.7669 345° North 381 438 32,000  Level Kansas City Center
Sun 08:05:55 PM 38.1644 -90.7992 346° North 378 435 32,000  Level Kansas City Center
Sun 08:06:57 PM 38.2661 -90.8328 345° North 376 433 32,000  Level Kansas City Center
Sun 08:07:58 PM 38.3681 -90.8653 346° North 376 433 32,000  Level Kansas City Center
Sun 08:09:00 PM 38.4692 -90.8989 345° North 374 430 32,000  Level Kansas City Center
Sun 08:10:02 PM 38.5708 -90.9322 346° North 374 430 32,000  Level Kansas City Center
Sun 08:11:03 PM 38.6728 -90.9647 346° North 376 433 32,000 -146 Level Kansas City Center
Sun 08:12:05 PM 38.7819 -90.9239 16° North 415 478 31,700 -390 Descending Kansas City Center
Sun 08:13:06 PM 38.8931 -90.8658 22° Northeast 427 491 31,200 -341 Descending Kansas City Center
Sun 08:14:08 PM 39.0044 -90.8075 22° Northeast 429 494 31,000 -97 Descending Kansas City Center
Sun 08:15:10 PM 39.1317 -90.8278 353° North 389 448 31,000  Level Kansas City Center
Sun 08:16:11 PM 39.2336 -90.8564 348° North 377 434 31,000  Level Kansas City Center
Sun 08:17:13 PM 39.3378 -90.8825 349° North 379 436 31,000  Level Kansas City Center
Sun 08:18:14 PM 39.4422 -90.9122 348° North 382 440 31,000  Level Kansas City Center
Sun 08:19:16 PM 39.5303 -90.9764 331° Northwest 368 423 31,000  Level Kansas City Center
Sun 08:20:18 PM 39.6089 -91.0581 321° Northwest 363 418 31,000  Level Kansas City Center
Sun 08:21:19 PM 39.7178 -91.0567 North 394 453 31,000  Level Kansas City Center
Sun 08:22:21 PM 39.8358 -90.9431 36° Northeast 439 505 31,000  Level Kansas City Center
Sun 08:23:23 PM 39.9361 -90.8428 37° Northeast 451 519 31,000  Level Kansas City Center
Sun 08:24:24 PM 40.0364 -90.7422 38° Northeast 454 522 31,000  Level Kansas City Center
Sun 08:25:26 PM 40.1353 -90.6431 37° Northeast 449 517 31,000  Level Kansas City Center
Sun 08:26:27 PM 40.2336 -90.5444 37° Northeast 447 514 31,000  Level Kansas City Center
Sun 08:27:29 PM 40.3272 -90.4494 38° Northeast 432 497 31,000  Level Kansas City Center
Sun 08:28:30 PM 40.4208 -90.3519 38° Northeast 428 493 31,000 -98 Level Kansas City Center
Sun 08:29:32 PM 40.5156 -90.2567 37° Northeast 428 493 30,800 -1,161 Descending Kansas City Center
Sun 08:30:34 PM 40.6239 -90.1453 38° Northeast 435 501 28,600 -2,000 Descending Kansas City Center
Sun 08:31:35 PM 40.7194 -90.0478 38° Northeast 438 504 26,700 -1,561 Descending Kansas City Center
Sun 08:32:37 PM 40.8072 -89.9575 38° Northeast 433 498 25,400 -1,165 Descending Kansas City Center
Sun 08:33:54 PM 40.9456 -89.8133 38° Northeast 444 511 24,000 -604 Descending Chicago Center
Sun 08:34:56 PM 41.0397 -89.7139 39° Northeast 435 501 24,000 -48 Level Chicago Center
Sun 08:35:58 PM 41.1328 -89.6169 38° Northeast 428 493 23,900 -677 Descending Chicago Center
Sun 08:37:00 PM 41.2028 -89.4819 55° Northeast 444 511 22,600 -1,597 Descending Chicago Center
Sun 08:38:02 PM 41.2619 -89.3361 62° Northeast 448 516 20,600 -2,613 Descending Chicago Center
Sun 08:39:04 PM 41.3189 -89.1944 62° Northeast 438 504 17,200 -3,290 Descending Chicago Center
Sun 08:40:06 PM 41.3822 -89.0358 62° Northeast 406 467 13,800 -2,806 Descending Chicago Center
Sun 08:41:08 PM 41.4319 -88.9097 62° Northeast 388 447 11,400 -1,403 Descending Chicago Center
Sun 08:42:10 PM 41.4794 -88.7856 63° Northeast 380 437 10,900 -242 Descending Chicago Center
Sun 08:43:12 PM 41.5275 -88.6631 62° Northeast 374 430 10,900 48 Level Chicago Center
Sun 08:44:14 PM 41.5767 -88.5419 61° Northeast 374 430 11,000  Climbing Chicago Center
Sun 08:45:16 PM 41.6294 -88.4228 59° Northeast 373 429 10,900 -48 Descending Chicago Center
Sun 08:46:19 PM 41.7033 -88.3014 51° Northeast 353 406 10,900 -576 Level Chicago Center
Sun 08:47:21 PM 41.7531 -88.2167 52° Northeast 294 338 9,700 -1,258 Descending Chicago Center
Sun 08:48:23 PM 41.8031 -88.1306 52° Northeast 295 339 8,300 -1,306 Descending Chicago Center
Sun 08:49:25 PM 41.8303 -88.0356 69° East 279 321 7,000 -634 Descending Chicago Center
Sun 08:50:26 PM 41.8569 -87.9217 73° East 275 316 7,000 -49 Level Chicago Center
Sun 08:51:28 PM 41.8778 -87.8228 74° East 276 318 6,900 -581 Descending Chicago Center
Sun 08:52:30 PM 41.8831 -87.7406 85° East 253 291 5,800 -629 Descending Chicago Center
Sun 08:53:32 PM 41.8867 -87.6619 86° East 247 284 5,600 -1,094 Descending Chicago Center
Sun 08:55:53 PM 41.9667 -87.8000 308° West 142 163 2,100 -1,246 Descending Chicago TRACON
Sun 08:56:59 PM 41.9667 -87.8500 270° West 125 144 1,300 -727 Descending Chicago TRACON

Login

Don't have an account? Register now (free) for customized features, flight alerts, and more!